createdAt,value
2023-05-19T00:01:00.327Z,102859.91
2023-05-19T00:03:27.128Z,102827.84
2023-05-19T00:05:54.358Z,102866.03
2023-05-19T00:08:23.770Z,102857.25
2023-05-19T00:10:50.649Z,102825.97
2023-05-19T00:13:17.402Z,102838.03
2023-05-19T00:15:44.092Z,102851.97
2023-05-19T00:18:14.107Z,102846.88
2023-05-19T00:20:41.357Z,102851.47
2023-05-19T00:23:08.342Z,102826.00
2023-05-19T00:25:34.897Z,102845.63
2023-05-19T00:28:02.469Z,102843.00
2023-05-19T00:30:32.494Z,102849.13
2023-05-19T00:32:59.145Z,102852.03
2023-05-19T00:35:25.686Z,102804.41
2023-05-19T00:37:52.156Z,102844.88
2023-05-19T00:40:18.899Z,102817.03
2023-05-19T00:42:45.606Z,102833.84
2023-05-19T00:45:12.089Z,102853.97
2023-05-19T00:47:39.334Z,102819.94
2023-05-19T00:50:06.124Z,102842.84
2023-05-19T00:52:32.640Z,102819.00
2023-05-19T00:54:59.530Z,102821.03
2023-05-19T00:57:27.073Z,102846.78
2023-05-19T00:59:53.897Z,102850.44
2023-05-19T01:02:21.511Z,102801.28
2023-05-19T01:04:48.152Z,102834.47
2023-05-19T01:07:15.304Z,102824.97
2023-05-19T01:09:41.937Z,102821.06
2023-05-19T01:12:08.895Z,102810.22
2023-05-19T01:14:35.448Z,102834.41
2023-05-19T01:17:28.596Z,102774.09
2023-05-19T01:20:11.059Z,102781.09
2023-05-19T01:23:19.729Z,102823.59
2023-05-19T01:25:46.123Z,102839.50
2023-05-19T01:28:56.930Z,102835.16
2023-05-19T01:31:25.435Z,102815.66
2023-05-19T01:33:53.896Z,102692.28
2023-05-19T01:36:22.550Z,102827.69
2023-05-19T01:38:55.921Z,102755.94
2023-05-19T01:41:23.021Z,102816.06
2023-05-19T01:43:50.454Z,102810.88
2023-05-19T01:46:17.639Z,102759.25
2023-05-19T01:48:45.059Z,102814.47
2023-05-19T01:51:11.714Z,102759.06
2023-05-19T01:53:38.304Z,102685.41
2023-05-19T01:56:06.529Z,102812.94
2023-05-19T01:58:46.970Z,102744.22
2023-05-19T02:01:44.191Z,102816.59
2023-05-19T02:04:35.769Z,102804.34
2023-05-19T02:07:37.388Z,102813.00
2023-05-19T02:10:11.598Z,102813.19
2023-05-19T02:12:40.490Z,102764.09
2023-05-19T02:15:26.025Z,102771.75
2023-05-19T02:17:54.429Z,102799.09
2023-05-19T02:20:22.241Z,102789.53
2023-05-19T02:22:49.153Z,102805.63
2023-05-19T02:25:15.651Z,102770.03
2023-05-19T02:27:42.085Z,102804.94
2023-05-19T02:30:09.526Z,102804.78
2023-05-19T02:32:36.547Z,102798.84
2023-05-19T02:35:03.993Z,102756.63
2023-05-19T02:37:31.160Z,102793.97
2023-05-19T02:39:57.882Z,102791.41
2023-05-19T02:42:24.309Z,102788.03
2023-05-19T02:44:50.800Z,102774.53
2023-05-19T02:47:17.219Z,102797.69
2023-05-19T02:49:44.234Z,102779.03
2023-05-19T02:52:12.078Z,102791.09
2023-05-19T02:54:38.591Z,102791.78
2023-05-19T02:57:05.388Z,102764.44
2023-05-19T02:59:32.202Z,102788.44
2023-05-19T03:02:03.051Z,102779.78
2023-05-19T03:04:29.972Z,102768.50
2023-05-19T03:06:57.671Z,102765.13
2023-05-19T03:09:24.155Z,102713.78
2023-05-19T03:11:50.742Z,102746.84
2023-05-19T03:14:18.558Z,102737.44
2023-05-19T03:16:45.208Z,102728.69
2023-05-19T03:19:12.074Z,102752.56
2023-05-19T03:21:38.493Z,102745.13
2023-05-19T03:24:05.246Z,102753.78
2023-05-19T03:26:31.692Z,102730.88
2023-05-19T03:28:58.176Z,102740.06
2023-05-19T03:31:24.611Z,102751.34
2023-05-19T03:33:51.035Z,102765.53
2023-05-19T03:36:17.614Z,102743.47
2023-05-19T03:38:44.048Z,102744.97
2023-05-19T03:41:10.520Z,102768.00
2023-05-19T03:43:37.023Z,102713.34
2023-05-19T03:46:03.560Z,102758.06
2023-05-19T03:48:30.138Z,102759.94
2023-05-19T03:50:56.574Z,102709.09
2023-05-19T03:53:23.010Z,102756.72
2023-05-19T03:55:50.621Z,102753.47
2023-05-19T03:58:17.101Z,102736.34
2023-05-19T04:00:43.552Z,102726.06
2023-05-19T04:03:10.060Z,102741.44
2023-05-19T04:05:36.666Z,102738.09
2023-05-19T04:08:03.126Z,102724.09
2023-05-19T04:10:29.709Z,102716.84
2023-05-19T04:12:56.908Z,102715.28
2023-05-19T04:15:23.443Z,102768.81
2023-05-19T04:17:49.946Z,102764.03
2023-05-19T04:20:16.489Z,102746.22
2023-05-19T04:22:42.950Z,102745.78
2023-05-19T04:25:09.644Z,102764.03
2023-05-19T04:27:42.462Z,102767.16
2023-05-19T04:30:09.386Z,102747.66
2023-05-19T04:32:37.812Z,102777.53
2023-05-19T04:35:04.738Z,102691.59
2023-05-19T04:37:31.538Z,102760.47
2023-05-19T04:39:58.025Z,102724.66
2023-05-19T04:42:26.154Z,102754.53
2023-05-19T04:44:52.675Z,102764.59
2023-05-19T04:47:21.526Z,102770.00
2023-05-19T04:49:48.169Z,102761.28
2023-05-19T04:52:14.639Z,102769.41
2023-05-19T04:54:41.910Z,102761.97
2023-05-19T04:57:08.515Z,102760.34
2023-05-19T04:59:35.014Z,102770.03
2023-05-19T05:02:01.522Z,102766.81
2023-05-19T05:04:28.401Z,102780.75
2023-05-19T05:06:54.877Z,102761.44
2023-05-19T05:09:21.503Z,102788.81
2023-05-19T05:11:48.246Z,102763.84
2023-05-19T05:14:15.034Z,102774.59
2023-05-19T05:16:42.298Z,102790.69
2023-05-19T05:19:09.183Z,102792.38
2023-05-19T05:21:35.978Z,102797.81
2023-05-19T05:24:02.799Z,102762.81
2023-05-19T05:26:31.618Z,102793.06
2023-05-19T05:28:58.071Z,102799.84
2023-05-19T05:31:24.629Z,102789.69
2023-05-19T05:33:51.133Z,102789.44
2023-05-19T05:36:17.721Z,102804.94
2023-05-19T05:38:44.243Z,102791.19
2023-05-19T05:41:10.765Z,102796.19
2023-05-19T05:43:37.285Z,102777.09
2023-05-19T05:46:03.843Z,102753.94
2023-05-19T05:48:30.617Z,102790.16
2023-05-19T05:50:57.796Z,102742.66
2023-05-19T05:53:26.215Z,102790.25
2023-05-19T05:55:53.600Z,102786.31
2023-05-19T05:58:21.224Z,102793.75
2023-05-19T06:00:49.409Z,102770.38
2023-05-19T06:03:16.957Z,102769.44
2023-05-19T06:05:43.597Z,102779.28
2023-05-19T06:08:10.117Z,102790.34
2023-05-19T06:10:38.926Z,102797.41
2023-05-19T06:13:05.571Z,102790.31
2023-05-19T06:15:32.073Z,102778.81
2023-05-19T06:17:59.216Z,102791.28
2023-05-19T06:20:26.295Z,102787.91
2023-05-19T06:22:52.801Z,102787.38
2023-05-19T06:25:20.516Z,102790.75
2023-05-19T06:27:47.012Z,102785.75
2023-05-19T06:30:13.788Z,102773.28
2023-05-19T06:32:40.488Z,102769.97
2023-05-19T06:35:07.361Z,102766.91
2023-05-19T06:37:33.852Z,102753.50
2023-05-19T06:40:00.455Z,102781.41
2023-05-19T06:42:26.893Z,102771.34
2023-05-19T06:44:53.363Z,102754.47
2023-05-19T06:47:19.970Z,102776.16
2023-05-19T06:49:46.615Z,102741.78
2023-05-19T06:52:13.054Z,102755.19
2023-05-19T06:54:39.546Z,102778.66
2023-05-19T06:57:06.042Z,102763.63
2023-05-19T06:59:32.520Z,102780.28
2023-05-19T07:01:59.317Z,102779.06
2023-05-19T07:04:25.825Z,102756.00
2023-05-19T07:06:52.333Z,102783.88
2023-05-19T07:09:18.867Z,102780.66
2023-05-19T07:11:45.809Z,102760.97
2023-05-19T07:14:12.233Z,102769.66
2023-05-19T07:16:38.776Z,102756.69
2023-05-19T07:19:05.460Z,102772.09
2023-05-19T07:21:31.906Z,102767.16
2023-05-19T07:23:58.344Z,102727.44
2023-05-19T07:26:24.796Z,102762.44
2023-05-19T07:28:51.923Z,102785.72
2023-05-19T07:31:19.445Z,102756.34
2023-05-19T07:33:45.892Z,102766.47
2023-05-19T07:36:12.412Z,102778.22
2023-05-19T07:38:38.954Z,102738.09
2023-05-19T07:41:05.791Z,102747.63
2023-05-19T07:43:32.278Z,102776.84
2023-05-19T07:45:58.856Z,102760.94
2023-05-19T07:48:25.929Z,102726.16
2023-05-19T07:50:53.075Z,102769.59
2023-05-19T07:53:20.276Z,102762.59
2023-05-19T07:55:46.867Z,102742.69
2023-05-19T07:58:13.404Z,102758.31
2023-05-19T08:00:42.985Z,102774.25
2023-05-19T08:03:09.981Z,102770.34
2023-05-19T08:05:36.722Z,102776.03
2023-05-19T08:08:03.755Z,102757.88
2023-05-19T08:10:30.476Z,102766.44
2023-05-19T08:12:59.777Z,102733.03
2023-05-19T08:15:26.424Z,102764.63
2023-05-19T08:17:53.269Z,102723.19
2023-05-19T08:20:20.341Z,102746.44
2023-05-19T08:22:46.922Z,102756.84
2023-05-19T08:25:13.848Z,102708.47
2023-05-19T08:27:40.461Z,102752.41
2023-05-19T08:30:07.507Z,102751.00
2023-05-19T08:32:33.980Z,102728.53
2023-05-19T08:35:00.499Z,102730.72
2023-05-19T08:37:26.974Z,102736.91
2023-05-19T08:39:53.403Z,102729.91
2023-05-19T08:42:19.813Z,102689.38
2023-05-19T08:44:46.599Z,102703.22
2023-05-19T08:47:14.077Z,102681.03
2023-05-19T08:49:45.493Z,102680.66
2023-05-19T08:52:41.948Z,102732.22
2023-05-19T08:55:21.770Z,102724.84
2023-05-19T08:57:49.555Z,102723.03
2023-05-19T09:00:16.920Z,102707.13
2023-05-19T09:02:54.977Z,102682.50
2023-05-19T09:05:27.855Z,102712.91
2023-05-19T09:07:55.042Z,102711.91
2023-05-19T09:10:21.576Z,102665.44
2023-05-19T09:12:49.620Z,102705.78
2023-05-19T09:15:18.753Z,102703.22
2023-05-19T09:17:47.968Z,102701.63
2023-05-19T09:20:17.316Z,102702.59
2023-05-19T09:22:47.232Z,102669.22
2023-05-19T09:25:22.921Z,102706.72
2023-05-19T09:27:50.521Z,102691.25
2023-05-19T09:30:17.773Z,102671.13
2023-05-19T09:32:45.530Z,102627.78
2023-05-19T09:35:13.442Z,102704.22
2023-05-19T09:37:41.511Z,102704.63
2023-05-19T09:40:13.503Z,102674.66
2023-05-19T09:42:41.514Z,102705.44
2023-05-19T09:45:12.018Z,102701.25
2023-05-19T09:47:42.184Z,102663.44
2023-05-19T09:50:11.245Z,102678.06
2023-05-19T09:52:43.647Z,102699.25
2023-05-19T09:55:12.735Z,102700.41
2023-05-19T09:57:40.736Z,102666.13
2023-05-19T10:00:15.590Z,102699.50
2023-05-19T10:02:47.131Z,102704.00
2023-05-19T10:05:20.829Z,102650.00
2023-05-19T10:07:51.604Z,102697.22
2023-05-19T10:10:20.785Z,102650.66
2023-05-19T10:12:48.465Z,102674.13
2023-05-19T10:15:21.422Z,102688.13
2023-05-19T10:17:50.168Z,102684.50
2023-05-19T10:20:17.790Z,102685.34
2023-05-19T10:22:46.199Z,102664.59
2023-05-19T10:25:15.216Z,102639.06
2023-05-19T10:28:03.622Z,102680.44
2023-05-19T10:30:34.436Z,102651.84
2023-05-19T10:33:03.714Z,102667.25
2023-05-19T10:36:02.540Z,102667.13
2023-05-19T10:38:48.595Z,102665.00
2023-05-19T10:41:49.128Z,102674.69
2023-05-19T10:44:46.471Z,102666.81
2023-05-19T10:47:13.221Z,102614.63
2023-05-19T10:49:39.954Z,102656.44
2023-05-19T10:52:21.509Z,102605.69
2023-05-19T10:54:47.999Z,102622.63
2023-05-19T10:57:16.469Z,102646.59
2023-05-19T10:59:46.413Z,102638.19
2023-05-19T11:02:39.988Z,102653.34
2023-05-19T11:05:11.408Z,102639.16
2023-05-19T11:07:41.396Z,102615.97
2023-05-19T11:10:08.312Z,102656.66
2023-05-19T11:12:45.562Z,102651.56
2023-05-19T11:15:13.872Z,102664.38
2023-05-19T11:17:42.420Z,102656.78
2023-05-19T11:20:19.892Z,102654.59
2023-05-19T11:23:01.351Z,102644.19
2023-05-19T11:25:44.259Z,102644.97
2023-05-19T11:28:12.578Z,102609.75
2023-05-19T11:30:42.118Z,102603.13
2023-05-19T11:33:08.949Z,102617.56
2023-05-19T11:35:36.511Z,102650.91
2023-05-19T11:38:03.653Z,102628.84
2023-05-19T11:40:30.727Z,102626.28
2023-05-19T11:42:57.208Z,102605.16
2023-05-19T11:45:28.721Z,102573.19
2023-05-19T11:48:02.367Z,102615.72
2023-05-19T11:50:31.442Z,102583.38
2023-05-19T11:53:00.443Z,102536.91
2023-05-19T11:55:27.511Z,102614.31
2023-05-19T11:58:04.074Z,102624.94
2023-05-19T12:00:40.871Z,102585.81
2023-05-19T12:03:09.336Z,102622.84
2023-05-19T12:05:45.291Z,102577.66
2023-05-19T12:08:12.692Z,102590.75
2023-05-19T12:10:40.707Z,102638.00
2023-05-19T12:13:10.809Z,102628.25
2023-05-19T12:15:37.999Z,102626.78
2023-05-19T12:18:04.637Z,102564.34
2023-05-19T12:20:36.121Z,102582.00
2023-05-19T12:23:03.652Z,102598.84
2023-05-19T12:25:31.868Z,102593.44
2023-05-19T12:28:00.374Z,102563.75
2023-05-19T12:30:28.953Z,102582.22
2023-05-19T12:32:59.113Z,102604.13
2023-05-19T12:35:37.506Z,102587.25
2023-05-19T12:38:04.939Z,102575.78
2023-05-19T12:40:31.951Z,102595.25
2023-05-19T12:42:59.199Z,102582.66
2023-05-19T12:45:27.934Z,102583.34
2023-05-19T12:47:54.784Z,102576.50
2023-05-19T12:50:21.333Z,102570.47
2023-05-19T12:52:51.177Z,102574.34
2023-05-19T12:55:20.490Z,102548.16
2023-05-19T12:57:57.250Z,102572.91
2023-05-19T13:00:32.537Z,102570.22
2023-05-19T13:03:05.668Z,102538.63
2023-05-19T13:05:34.396Z,102576.44
2023-05-19T13:08:06.789Z,102570.59
2023-05-19T13:10:34.908Z,102559.72
2023-05-19T13:13:01.932Z,102560.25
2023-05-19T13:15:34.513Z,102503.16
2023-05-19T13:18:03.279Z,102523.09
2023-05-19T13:20:30.473Z,102563.59
2023-05-19T13:22:57.414Z,102530.38
2023-05-19T13:25:24.085Z,102566.09
2023-05-19T13:27:51.040Z,102539.84
2023-05-19T13:30:18.741Z,102568.03
2023-05-19T13:32:46.011Z,102561.16
2023-05-19T13:35:13.983Z,102539.66
2023-05-19T13:37:42.180Z,102530.88
2023-05-19T13:40:09.730Z,102542.22
2023-05-19T13:42:36.758Z,102555.38
2023-05-19T13:45:03.804Z,102552.41
2023-05-19T13:47:30.505Z,102540.78
2023-05-19T13:49:57.288Z,102532.81
2023-05-19T13:52:24.079Z,102543.13
2023-05-19T13:54:50.551Z,102548.53
2023-05-19T13:57:17.041Z,102534.25
2023-05-19T14:00:00.244Z,102517.44
2023-05-19T14:02:29.830Z,102533.19
2023-05-19T14:07:23.610Z,102526.69
2023-05-19T14:09:51.158Z,102518.41
2023-05-19T14:12:17.884Z,102492.38
2023-05-19T14:14:44.789Z,102530.31
2023-05-19T14:17:11.882Z,102526.59
2023-05-19T14:19:38.346Z,102530.66
2023-05-19T14:22:05.085Z,102524.22
2023-05-19T14:24:31.622Z,102517.59
2023-05-19T14:26:58.049Z,102522.53
2023-05-19T14:29:24.495Z,102522.38
2023-05-19T14:31:50.963Z,102511.22
2023-05-19T14:34:20.917Z,102496.50
2023-05-19T14:36:48.595Z,102517.09
2023-05-19T14:39:15.171Z,102517.44
2023-05-19T14:41:41.622Z,102507.53
2023-05-19T14:44:08.085Z,102507.19
2023-05-19T14:46:34.573Z,102507.69
2023-05-19T14:49:01.212Z,102516.84
2023-05-19T14:51:27.631Z,102510.38
2023-05-19T14:53:54.100Z,102501.13
2023-05-19T14:56:21.935Z,102513.63
2023-05-19T14:58:48.401Z,102513.56
2023-05-19T15:01:14.866Z,102514.81
2023-05-19T15:03:41.327Z,102515.47
2023-05-19T15:06:11.176Z,102512.63
2023-05-19T15:08:38.229Z,102474.88
2023-05-19T15:11:04.803Z,102487.88
2023-05-19T15:13:31.365Z,102510.97
2023-05-19T15:16:12.327Z,102499.56
2023-05-19T15:18:43.292Z,102498.69
2023-05-19T15:21:09.864Z,102473.50
2023-05-19T15:23:36.319Z,102500.00
2023-05-19T15:26:02.843Z,102504.31
2023-05-19T15:28:29.458Z,102505.13
2023-05-19T15:30:55.918Z,102495.94
2023-05-19T15:33:22.394Z,102473.97
2023-05-19T15:35:51.677Z,102499.41
2023-05-19T15:38:19.291Z,102487.22
2023-05-19T15:40:46.820Z,102490.25
2023-05-19T15:43:13.933Z,102459.94
2023-05-19T15:45:40.858Z,102447.38
2023-05-19T15:48:07.449Z,102489.66
2023-05-19T15:50:34.342Z,102498.22
2023-05-19T15:53:01.067Z,102473.81
2023-05-19T15:55:27.516Z,102481.78
2023-05-19T15:57:53.969Z,102486.34
2023-05-19T16:00:20.530Z,102482.31
2023-05-19T16:02:47.055Z,102484.66
2023-05-19T16:05:14.266Z,102470.91
2023-05-19T16:07:42.073Z,102470.91
2023-05-19T16:10:09.134Z,102452.47
2023-05-19T16:12:36.634Z,102479.78
2023-05-19T16:15:03.487Z,102475.59
2023-05-19T16:17:30.098Z,102453.81
2023-05-19T16:19:56.607Z,102445.75
2023-05-19T16:22:24.790Z,102465.19
2023-05-19T16:24:52.152Z,102465.19
2023-05-19T16:27:18.828Z,102420.09
2023-05-19T16:29:45.358Z,102443.38
2023-05-19T16:32:12.377Z,102438.00
2023-05-19T16:34:38.989Z,102451.16
2023-05-19T16:37:05.506Z,102446.38
2023-05-19T16:39:32.587Z,102425.63
2023-05-19T16:41:59.009Z,102450.78
2023-05-19T16:44:25.698Z,102426.50
2023-05-19T16:46:52.193Z,102436.41
2023-05-19T16:49:18.640Z,102449.66
2023-05-19T16:51:46.199Z,102416.66
2023-05-19T16:54:13.928Z,102460.84
2023-05-19T16:56:40.441Z,102434.91
2023-05-19T16:59:09.178Z,102406.56
2023-05-19T17:01:35.722Z,102458.19
2023-05-19T17:04:02.209Z,102452.28
2023-05-19T17:06:28.808Z,102459.75
2023-05-19T17:08:55.282Z,102452.03
2023-05-19T17:11:21.824Z,102460.06
2023-05-19T17:13:48.301Z,102471.56
2023-05-19T17:16:15.093Z,102473.47
2023-05-19T17:18:41.794Z,102449.63
2023-05-19T17:21:08.242Z,102466.09
2023-05-19T17:23:34.823Z,102460.59
2023-05-19T17:26:01.887Z,102455.84
2023-05-19T17:28:28.531Z,102464.41
2023-05-19T17:30:54.970Z,102453.72
2023-05-19T17:33:21.470Z,102441.63
2023-05-19T17:35:47.967Z,102435.09
2023-05-19T17:38:14.411Z,102466.13
2023-05-19T17:40:42.049Z,102432.91
2023-05-19T17:43:08.797Z,102421.41
2023-05-19T17:45:35.584Z,102458.03
2023-05-19T17:48:02.261Z,102451.91
2023-05-19T17:50:28.761Z,102476.03
2023-05-19T17:52:56.161Z,102467.69
2023-05-19T17:55:27.895Z,102430.91
2023-05-19T17:57:54.684Z,102460.06
2023-05-19T18:00:21.632Z,102478.44
2023-05-19T18:02:48.569Z,102476.09
2023-05-19T18:05:15.747Z,102481.72
2023-05-19T18:07:42.462Z,102420.13
2023-05-19T18:10:09.714Z,102439.78
2023-05-19T18:12:36.245Z,102469.88
2023-05-19T18:15:03.311Z,102472.28
2023-05-19T18:17:29.761Z,102488.59
2023-05-19T18:19:56.217Z,102470.50
2023-05-19T18:22:22.702Z,102441.53
2023-05-19T18:24:49.180Z,102479.75
2023-05-19T18:27:15.609Z,102471.75
2023-05-19T18:29:42.286Z,102473.59
2023-05-19T18:32:09.160Z,102457.94
2023-05-19T18:34:35.847Z,102488.38
2023-05-19T18:37:02.377Z,102493.25
2023-05-19T18:39:29.468Z,102461.34
2023-05-19T18:41:56.043Z,102488.06
2023-05-19T18:44:22.579Z,102478.03
2023-05-19T18:46:49.149Z,102488.50
2023-05-19T18:49:15.748Z,102485.84
2023-05-19T18:51:42.491Z,102484.06
2023-05-19T18:54:09.086Z,102476.66
2023-05-19T18:56:35.688Z,102487.84
2023-05-19T18:59:02.170Z,102445.28
2023-05-19T19:01:28.967Z,102477.25
2023-05-19T19:03:55.462Z,102481.91
2023-05-19T19:06:23.217Z,102502.06
2023-05-19T19:08:49.849Z,102475.31
2023-05-19T19:11:16.533Z,102478.41
2023-05-19T19:13:43.673Z,102490.34
2023-05-19T19:16:12.036Z,102487.94
2023-05-19T19:18:38.655Z,102498.78
2023-05-19T19:21:07.898Z,102515.28
2023-05-19T19:23:34.493Z,102493.16
2023-05-19T19:26:01.920Z,102465.16
2023-05-19T19:28:28.378Z,102519.69
2023-05-19T19:30:54.889Z,102520.25
2023-05-19T19:33:21.420Z,102480.72
2023-05-19T19:35:47.871Z,102512.97
2023-05-19T19:38:14.410Z,102518.44
2023-05-19T19:40:41.275Z,102530.03
2023-05-19T19:43:07.763Z,102500.88
2023-05-19T19:45:34.896Z,102460.91
2023-05-19T19:48:01.787Z,102515.72
2023-05-19T19:50:28.354Z,102479.69
2023-05-19T19:52:54.784Z,102530.72
2023-05-19T19:55:21.620Z,102540.81
2023-05-19T19:57:49.337Z,102543.06
2023-05-19T20:00:16.597Z,102516.75
2023-05-19T20:02:55.840Z,102527.56
2023-05-19T20:05:29.529Z,102533.91
2023-05-19T20:07:55.961Z,102572.16
2023-05-19T20:10:22.455Z,102546.59
2023-05-19T20:12:50.524Z,102540.38
2023-05-19T20:15:17.159Z,102573.75
2023-05-19T20:17:43.660Z,102513.09
2023-05-19T20:20:12.137Z,102534.94
2023-05-19T20:22:39.113Z,102525.22
2023-05-19T20:25:06.080Z,102537.13
2023-05-19T20:27:32.536Z,102587.81
2023-05-19T20:29:59.023Z,102583.97
2023-05-19T20:32:25.632Z,102584.94
2023-05-19T20:34:52.184Z,102586.19
2023-05-19T20:37:18.627Z,102568.31
2023-05-19T20:39:45.050Z,102581.34
2023-05-19T20:42:11.579Z,102587.78
2023-05-19T20:44:38.103Z,102565.25
2023-05-19T20:47:04.839Z,102591.94
2023-05-19T20:49:31.306Z,102573.38
2023-05-19T20:51:57.811Z,102578.69
2023-05-19T20:54:24.319Z,102594.84
2023-05-19T20:56:51.894Z,102585.19
2023-05-19T20:59:21.418Z,102576.75
2023-05-19T21:01:48.066Z,102577.84
2023-05-19T21:04:14.619Z,102604.81
2023-05-19T21:06:41.282Z,102570.13
2023-05-19T21:09:07.897Z,102599.16
2023-05-19T21:11:34.558Z,102572.44
2023-05-19T21:14:04.092Z,102598.38
2023-05-19T21:16:31.323Z,102603.94
2023-05-19T21:18:58.019Z,102583.72
2023-05-19T21:21:24.604Z,102613.16
2023-05-19T21:23:51.052Z,102613.88
2023-05-19T21:26:17.837Z,102596.28
2023-05-19T21:28:44.299Z,102604.97
2023-05-19T21:31:10.963Z,102564.34
2023-05-19T21:33:37.478Z,102602.69
2023-05-19T21:36:04.138Z,102609.66
2023-05-19T21:38:30.813Z,102614.03
2023-05-19T21:40:57.275Z,102585.59
2023-05-19T21:43:23.773Z,102616.22
2023-05-19T21:45:50.219Z,102604.78
2023-05-19T21:48:16.795Z,102596.22
2023-05-19T21:50:43.392Z,102627.69
2023-05-19T21:53:09.992Z,102636.19
2023-05-19T21:55:36.501Z,102635.34
2023-05-19T21:58:03.083Z,102624.44
2023-05-19T22:00:29.589Z,102599.88
2023-05-19T22:02:56.643Z,102614.34
2023-05-19T22:05:23.137Z,102595.19
2023-05-19T22:07:49.611Z,102637.38
2023-05-19T22:10:16.095Z,102602.63
2023-05-19T22:12:42.530Z,102626.16
2023-05-19T22:15:09.703Z,102625.53
2023-05-19T22:17:36.251Z,102594.94
2023-05-19T22:20:02.749Z,102600.97
2023-05-19T22:22:29.179Z,102625.81
2023-05-19T22:24:55.631Z,102624.00
2023-05-19T22:27:22.070Z,102614.50
2023-05-19T22:29:48.505Z,102628.50
2023-05-19T22:32:17.935Z,102574.25
2023-05-19T22:34:44.740Z,102626.56
2023-05-19T22:37:11.521Z,102596.78
2023-05-19T22:39:38.978Z,102616.06
2023-05-19T22:42:05.981Z,102594.13
2023-05-19T22:44:32.488Z,102620.19
2023-05-19T22:46:58.951Z,102488.50
2023-05-19T22:49:26.169Z,102640.06
2023-05-19T22:51:52.770Z,102593.66
2023-05-19T22:54:19.273Z,102634.75
2023-05-19T22:56:48.429Z,102637.41
2023-05-19T22:59:17.614Z,102611.97
2023-05-19T23:01:46.357Z,102614.72
2023-05-19T23:04:13.480Z,102607.13
2023-05-19T23:06:39.973Z,102589.41
2023-05-19T23:09:06.620Z,102617.13
2023-05-19T23:11:33.140Z,102633.50
2023-05-19T23:13:59.674Z,102631.09
2023-05-19T23:16:26.210Z,102609.22
2023-05-19T23:18:52.790Z,102619.00
2023-05-19T23:21:19.339Z,102584.94
2023-05-19T23:23:45.871Z,102630.34
2023-05-19T23:26:13.447Z,102600.75
2023-05-19T23:28:42.043Z,102546.34
2023-05-19T23:31:09.159Z,102606.28
2023-05-19T23:33:35.835Z,102625.97
2023-05-19T23:36:09.879Z,102598.19
2023-05-19T23:38:37.297Z,102626.19
2023-05-19T23:41:04.851Z,102602.16
2023-05-19T23:43:34.802Z,102582.97
2023-05-19T23:46:01.646Z,102589.34
2023-05-19T23:48:29.267Z,102612.84
2023-05-19T23:50:56.831Z,102618.38
2023-05-19T23:53:23.528Z,102596.94
2023-05-19T23:55:51.272Z,102621.78
2023-05-19T23:58:18.190Z,102601.00
